Time;durP1;ratioP1;P1;durP2;ratioP2;P2;SDS_P1;SDS_P2;PMS_P1;PMS_P2;Temp;Humidity;BMP_temperature;BMP_pressure;BME280_temperature;BME280_humidity;BME280_pressure;Samples;Min_cycle;Max_cycle;Signal;HPM_P1;HPM_P2
2022/10/08 00:01:34;;;;;;;4.32;2.10;;;15.20;99.90;;;;;;5012101;28;20037;-93
2022/10/08 00:04:02;;;;;;;3.13;2.00;;;;;;;;;;5012083;28;20034;-92
2022/10/08 00:06:30;;;;;;;6.03;1.92;;;15.10;99.90;;;;;;5010218;28;20109;-92
2022/10/08 00:09:01;;;;;;;1.52;1.42;;;14.90;99.90;;;;;;5012092;28;20038;-93
2022/10/08 00:11:36;;;;;;;4.03;2.28;;;15.20;99.90;;;;;;5010826;28;20032;-92
2022/10/08 00:14:02;;;;;;;5.63;1.90;;;;;;;;;;4994277;28;20068;-91
2022/10/08 00:16:30;;;;;;;2.60;1.95;;;15.20;99.90;;;;;;5011926;28;20018;-91
2022/10/08 00:19:05;;;;;;;5.20;1.88;;;15.80;99.90;;;;;;5012212;28;20566;-91
2022/10/08 00:21:36;;;;;;;1.90;1.70;;;15.30;99.90;;;;;;4993896;28;20026;-92
2022/10/08 00:24:04;;;;;;;5.40;2.30;;;15.20;99.90;;;;;;4995171;28;20026;-92
2022/10/08 00:26:32;;;;;;;4.32;2.10;;;15.20;99.90;;;;;;5012140;28;20025;-92
2022/10/08 00:29:00;;;;;;;4.68;1.90;;;15.20;99.90;;;;;;4994837;28;20058;-92
2022/10/08 00:31:35;;;;;;;8.75;2.20;;;15.20;99.90;;;;;;5011711;28;20068;-92
2022/10/08 00:34:04;;;;;;;8.82;1.83;;;15.20;99.90;;;;;;4994636;28;20406;-92
2022/10/08 00:36:31;;;;;;;4.20;2.08;;;;;;;;;;5012050;28;20026;-91
2022/10/08 00:38:57;;;;;;;7.05;1.88;;;;;;;;;;5007364;28;20030;-93
2022/10/08 00:41:25;;;;;;;5.00;1.98;;;15.20;99.90;;;;;;5010856;28;20029;-92
2022/10/08 00:43:54;;;;;;;3.95;2.33;;;15.10;99.90;;;;;;5011463;28;20089;-92
2022/10/08 00:46:25;;;;;;;2.67;1.77;;;15.20;99.90;;;;;;4994085;28;20025;-92
2022/10/08 00:48:59;;;;;;;2.95;1.73;;;15.40;99.90;;;;;;5026032;28;20036;-91
2022/10/08 00:51:25;;;;;;;3.92;2.28;;;;;;;;;;4989101;28;20018;-92
2022/10/08 00:53:51;;;;;;;4.22;2.17;;;15.10;99.90;;;;;;5000088;28;20388;-93
2022/10/08 00:56:17;;;;;;;5.82;2.03;;;;;;;;;;5015691;28;20026;-92
2022/10/08 00:58:43;;;;;;;3.03;1.92;;;15.10;99.90;;;;;;5015726;28;20030;-91
2022/10/08 01:01:10;;;;;;;2.65;1.95;;;;;;;;;;4998137;28;20061;-92
2022/10/08 01:03:36;;;;;;;4.28;2.00;;;;;;;;;;5013944;28;20042;-92
2022/10/08 01:06:26;;;;;;;6.20;2.22;;;15.10;99.90;;;;;;5015391;28;20030;-92
2022/10/08 01:09:12;;;;;;;4.15;2.22;;;15.30;99.90;;;;;;5015123;28;20076;-92
2022/10/08 01:11:54;;;;;;;6.18;2.47;;;15.30;99.90;;;;;;5014783;28;20057;-92
2022/10/08 01:14:59;;;;;;;5.28;2.08;;;15.20;99.90;;;;;;4998409;28;20138;-92
2022/10/08 01:17:34;;;;;;;3.78;2.13;;;15.20;99.90;;;;;;5006576;28;20030;-92
2022/10/08 01:20:19;;;;;;;3.47;2.03;;;15.30;99.90;;;;;;4999070;28;20032;-91
2022/10/08 01:23:03;;;;;;;6.25;2.08;;;15.10;99.90;;;;;;5013744;28;20033;-91
2022/10/08 01:25:52;;;;;;;4.70;2.22;;;15.30;99.90;;;;;;5004118;28;20561;-92
2022/10/08 01:28:18;;;;;;;3.13;2.38;;;;;;;;;;5002717;28;20462;-92
2022/10/08 01:31:11;;;;;;;2.53;2.25;;;15.50;99.90;;;;;;5013552;28;20049;-93
2022/10/08 01:33:39;;;;;;;3.05;2.20;;;15.20;99.90;;;;;;5008194;28;20042;-94
2022/10/08 01:36:06;;;;;;;4.03;2.75;;;15.30;99.90;;;;;;5015105;28;20022;-92
2022/10/08 01:38:39;;;;;;;6.75;1.90;;;15.20;99.90;;;;;;5015025;28;20033;-93
2022/10/08 01:41:08;;;;;;;8.15;2.55;;;15.30;99.90;;;;;;5013188;28;20593;-92
2022/10/08 01:43:40;;;;;;;5.60;2.30;;;15.40;99.90;;;;;;5014366;28;20024;-93
2022/10/08 01:46:22;;;;;;;6.75;2.42;;;15.50;99.90;;;;;;5010125;28;20745;-92
2022/10/08 01:48:50;;;;;;;2.90;2.13;;;15.50;99.90;;;;;;5014475;28;20045;-92
2022/10/08 01:51:31;;;;;;;4.38;1.85;;;16.00;99.90;;;;;;5013410;28;20045;-91
2022/10/08 01:53:59;;;;;;;4.80;3.13;;;;;;;;;;5014505;28;20030;-93
2022/10/08 01:56:28;;;;;;;6.50;2.55;;;15.50;99.90;;;;;;5014689;28;20161;-92
2022/10/08 01:59:00;;;;;;;3.03;2.33;;;15.60;99.90;;;;;;5006729;28;20030;-92
2022/10/08 02:01:51;;;;;;;2.03;1.58;;;15.40;99.90;;;;;;5012552;28;20026;-92
2022/10/08 02:04:33;;;;;;;3.28;2.50;;;15.50;99.90;;;;;;4996610;28;20046;-92
2022/10/08 02:07:06;;;;;;;9.02;2.65;;;15.70;99.90;;;;;;5013436;28;20053;-93
2022/10/08 02:09:34;;;;;;;5.20;2.83;;;15.50;99.90;;;;;;4996672;28;20495;-93
2022/10/08 02:12:01;;;;;;;2.92;2.13;;;;;;;;;;5014105;28;20594;-91
2022/10/08 02:14:29;;;;;;;8.25;2.47;;;15.50;99.90;;;;;;5013685;28;20041;-92
2022/10/08 02:17:34;;;;;;;5.30;2.13;;;15.50;99.90;;;;;;4995860;28;20292;-92
2022/10/08 02:20:13;;;;;;;6.47;2.45;;;15.30;99.90;;;;;;5011007;28;20031;-92
2022/10/08 02:22:45;;;;;;;6.03;2.72;;;15.40;99.90;;;;;;5022728;28;20691;-92
2022/10/08 02:25:33;;;;;;;11.57;3.15;;;15.40;99.90;;;;;;4984183;28;20076;-92
2022/10/08 02:28:07;;;;;;;6.13;3.13;;;15.30;99.90;;;;;;4937080;29;20126;-93
2022/10/08 02:30:54;;;;;;;4.85;2.80;;;15.30;99.90;;;;;;4953293;28;20512;-93
2022/10/08 02:33:27;;;;;;;6.80;2.38;;;15.30;99.90;;;;;;4937051;29;20086;-92
2022/10/08 02:35:57;;;;;;;6.95;2.83;;;15.30;99.90;;;;;;4936956;29;20038;-93
2022/10/08 02:38:34;;;;;;;9.68;3.22;;;15.40;99.90;;;;;;4953042;28;20035;-92
2022/10/08 02:41:03;;;;;;;9.60;3.20;;;15.40;99.90;;;;;;4953215;28;20023;-93
2022/10/08 02:43:32;;;;;;;5.93;3.22;;;15.30;99.90;;;;;;4953346;28;20082;-92
2022/10/08 02:46:08;;;;;;;3.50;2.50;;;15.20;99.90;;;;;;4936667;29;20137;-93
2022/10/08 02:48:35;;;;;;;5.88;2.45;;;15.30;99.90;;;;;;4953260;28;20582;-92
2022/10/08 02:51:07;;;;;;;8.63;3.08;;;15.40;99.90;;;;;;4936810;29;20090;-91
2022/10/08 02:53:37;;;;;;;5.05;3.03;;;15.40;99.90;;;;;;4937028;29;20058;-91
2022/10/08 02:56:24;;;;;;;8.50;2.92;;;15.50;99.90;;;;;;4953215;29;20038;-91
2022/10/08 02:58:50;;;;;;;9.23;3.50;;;;;;;;;;4933458;29;20428;-93
2022/10/08 03:01:34;;;;;;;8.82;3.00;;;15.50;99.90;;;;;;4953132;28;20416;-91
2022/10/08 03:04:16;;;;;;;6.15;2.83;;;15.40;99.90;;;;;;4938895;28;20075;-92
2022/10/08 03:06:43;;;;;;;8.07;3.05;;;;;;;;;;5013095;28;20025;-92
2022/10/08 03:09:11;;;;;;;7.63;3.25;;;15.50;99.90;;;;;;4984093;28;20072;-93
2022/10/08 03:11:38;;;;;;;4.63;2.70;;;;;;;;;;4993215;28;20027;-93
2022/10/08 03:14:08;;;;;;;4.00;3.00;;;15.40;99.90;;;;;;5012158;28;20061;-93
2022/10/08 03:16:53;;;;;;;7.05;3.55;;;15.50;99.90;;;;;;5007306;28;20034;-93
2022/10/08 03:19:19;;;;;;;8.82;2.47;;;;;;;;;;5011821;28;20032;-93
2022/10/08 03:21:47;;;;;;;7.60;3.03;;;15.40;99.90;;;;;;5011501;28;20037;-94
2022/10/08 03:24:13;;;;;;;5.53;4.13;;;15.40;99.90;;;;;;4995433;28;20026;-92
2022/10/08 03:26:40;;;;;;;18.90;3.03;;;15.40;99.90;;;;;;4995230;28;20018;-94
2022/10/08 03:29:06;;;;;;;4.55;2.47;;;;;;;;;;5012583;28;20034;-93
2022/10/08 03:31:32;;;;;;;6.90;3.65;;;;;;;;;;5012873;28;20026;-92
2022/10/08 03:33:58;;;;;;;9.52;3.25;;;;;;;;;;5013146;28;20084;-92
2022/10/08 03:36:25;;;;;;;8.27;3.50;;;15.40;99.90;;;;;;5012290;28;20090;-93
2022/10/08 03:38:51;;;;;;;6.20;3.67;;;;;;;;;;4998144;28;20407;-92
2022/10/08 03:41:17;;;;;;;4.45;3.10;;;;;;;;;;5012801;28;20018;-92
2022/10/08 03:43:43;;;;;;;10.38;2.92;;;;;;;;;;5011142;28;20025;-91
2022/10/08 03:46:10;;;;;;;5.10;2.88;;;;;;;;;;5011011;28;20755;-92
2022/10/08 03:48:36;;;;;;;5.22;2.60;;;;;;;;;;5007985;28;20069;-92
2022/10/08 03:51:06;;;;;;;15.20;3.95;;;15.50;99.90;;;;;;5012378;28;20064;-93
2022/10/08 03:53:33;;;;;;;12.57;3.60;;;15.50;99.90;;;;;;5012519;28;20437;-93
2022/10/08 03:56:01;;;;;;;7.53;3.83;;;15.40;99.90;;;;;;5012208;28;20026;-92
2022/10/08 03:58:27;;;;;;;;;;;15.50;99.90;;;;;;5012594;28;20037;-93
2022/10/08 04:01:00;;;;;;;7.03;3.20;;;15.50;99.90;;;;;;4994439;28;19914;-92
2022/10/08 04:03:27;;;;;;;6.75;2.97;;;15.40;99.90;;;;;;4994809;28;20077;-92
2022/10/08 04:05:53;;;;;;;12.50;4.13;;;;;;;;;;5007990;28;20022;-92
2022/10/08 04:08:19;;;;;;;8.60;3.00;;;;;;;;;;5011385;28;20037;-92
2022/10/08 04:10:45;;;;;;;8.45;3.15;;;;;;;;;;5012722;28;20097;-92
2022/10/08 04:13:11;;;;;;;12.43;4.13;;;;;;;;;;5012773;28;20409;-92
2022/10/08 04:15:37;;;;;;;5.15;2.85;;;;;;;;;;5012431;28;20026;-93
2022/10/08 04:18:03;;;;;;;6.07;3.03;;;;;;;;;;5012301;28;20113;-92
2022/10/08 04:20:29;;;;;;;4.53;3.45;;;;;;;;;;5012364;28;20018;-92
2022/10/08 04:22:55;;;;;;;13.90;3.88;;;15.30;99.90;;;;;;5011085;28;20409;-94
2022/10/08 04:25:20;;;;;;;5.75;3.45;;;15.50;99.90;;;;;;5006836;28;20025;-91
2022/10/08 04:27:48;;;;;;;5.97;3.58;;;;;;;;;;4993686;28;20121;-93
2022/10/08 04:30:14;;;;;;;;;;;15.50;99.90;;;;;;5016544;28;20080;-92
2022/10/08 04:32:40;;;;;;;4.63;2.92;;;;;;;;;;5006425;28;20390;-92
2022/10/08 04:35:06;;;;;;;21.30;4.53;;;16.10;99.90;;;;;;5015985;28;20057;-93
2022/10/08 04:37:32;;;;;;;9.73;5.45;;;;;;;;;;5015832;28;20030;-92
2022/10/08 04:39:58;;;;;;;7.32;2.88;;;;;;;;;;5014815;28;20018;-92
2022/10/08 04:42:24;;;;;;;8.20;4.20;;;;;;;;;;5015796;28;20097;-92
2022/10/08 04:44:50;;;;;;;14.50;4.25;;;;;;;;;;5014198;28;20046;-92
2022/10/08 04:47:16;;;;;;;8.60;4.05;;;;;;;;;;5014639;28;20033;-92
2022/10/08 04:49:42;;;;;;;5.68;3.28;;;;;;;;;;5014583;28;20018;-92
2022/10/08 04:52:08;;;;;;;11.38;4.75;;;;;;;;;;5015053;28;20034;-92
2022/10/08 04:54:34;;;;;;;14.57;5.63;;;;;;;;;;5016001;28;20025;-92
2022/10/08 04:57:01;;;;;;;12.07;4.95;;;;;;;;;;5015402;28;20056;-93
2022/10/08 04:59:27;;;;;;;6.95;4.38;;;;;;;;;;5008023;28;20031;-92
2022/10/08 05:01:55;;;;;;;13.30;3.95;;;15.70;99.90;;;;;;5008728;28;20526;-92
2022/10/08 05:04:22;;;;;;;9.15;3.97;;;15.40;99.90;;;;;;5015098;28;20056;-93
2022/10/08 05:06:48;;;;;;;13.98;4.32;;;;;;;;;;5015085;28;20022;-91
2022/10/08 05:09:14;;;;;;;5.88;4.03;;;;;;;;;;5015336;28;20560;-93
2022/10/08 05:11:41;;;;;;;8.35;3.78;;;;;;;;;;5015163;28;20021;-92
2022/10/08 05:14:07;;;;;;;10.32;4.25;;;;;;;;;;5014812;28;20033;-92
2022/10/08 05:16:33;;;;;;;14.10;3.85;;;;;;;;;;5015465;28;20117;-91
2022/10/08 05:18:59;;;;;;;12.80;4.07;;;;;;;;;;5015445;28;20037;-92
2022/10/08 05:21:27;;;;;;;14.50;3.65;;;15.50;99.90;;;;;;5014996;28;20032;-93
2022/10/08 05:23:57;;;;;;;6.95;3.42;;;15.40;99.90;;;;;;5015441;28;20033;-92
2022/10/08 05:26:26;;;;;;;9.85;3.50;;;15.40;99.90;;;;;;4988032;28;20030;-92
2022/10/08 05:28:55;;;;;;;11.02;4.35;;;15.40;99.90;;;;;;5007646;28;20528;-93
2022/10/08 05:31:22;;;;;;;9.45;3.90;;;15.40;99.90;;;;;;5012280;28;20104;-92
2022/10/08 05:33:48;;;;;;;8.10;3.83;;;;;;;;;;5008660;28;20049;-92
2022/10/08 05:36:29;;;;;;;5.97;3.22;;;15.50;99.90;;;;;;5013455;28;20115;-92
2022/10/08 05:38:55;;;;;;;16.40;5.20;;;;;;;;;;5014860;28;20029;-92
2022/10/08 05:41:30;;;;;;;13.05;3.63;;;15.50;99.90;;;;;;5013667;28;20021;-93
2022/10/08 05:43:56;;;;;;;6.35;4.28;;;15.50;99.90;;;;;;5014740;28;20037;-92
2022/10/08 05:46:24;;;;;;;11.73;4.03;;;15.50;99.90;;;;;;5014909;28;20026;-92
2022/10/08 05:48:53;;;;;;;;;;;15.50;99.90;;;;;;4997159;28;20039;-93
2022/10/08 05:51:19;;;;;;;6.68;3.45;;;;;;;;;;5003000;28;19909;-92
2022/10/08 05:53:47;;;;;;;15.85;4.22;;;15.40;99.90;;;;;;5014308;28;20045;-93
2022/10/08 05:56:15;;;;;;;9.20;5.63;;;15.50;99.90;;;;;;5014618;28;20434;-91
2022/10/08 05:58:42;;;;;;;6.28;3.97;;;15.50;99.90;;;;;;5014622;28;20026;-92
2022/10/08 06:01:19;;;;;;;7.47;4.17;;;15.50;99.90;;;;;;5014883;28;20026;-93
2022/10/08 06:03:51;;;;;;;5.30;3.13;;;15.60;99.90;;;;;;5014248;28;20384;-92
2022/10/08 06:06:18;;;;;;;8.18;3.97;;;;;;;;;;5014386;28;20038;-92
2022/10/08 06:08:44;;;;;;;10.27;4.18;;;;;;;;;;5014215;28;20033;-92
2022/10/08 06:11:10;;;;;;;8.30;3.88;;;;;;;;;;5014378;28;20056;-93
2022/10/08 06:13:36;;;;;;;14.85;4.60;;;;;;;;;;5013915;28;20053;-92
2022/10/08 06:16:05;;;;;;;7.40;3.70;;;15.70;99.90;;;;;;5014114;28;20033;-93
2022/10/08 06:18:35;;;;;;;8.85;4.35;;;15.80;99.90;;;;;;4997220;28;20499;-92
2022/10/08 06:21:02;;;;;;;8.10;3.55;;;15.80;99.90;;;;;;5005942;28;20100;-93
2022/10/08 06:23:28;;;;;;;9.25;4.55;;;;;;;;;;5013618;28;20037;-93
2022/10/08 06:25:54;;;;;;;9.40;4.40;;;15.80;99.90;;;;;;5013129;28;20018;-93
2022/10/08 06:28:20;;;;;;;12.23;4.40;;;;;;;;;;5013770;28;20167;-92
2022/10/08 06:30:45;;;;;;;10.13;4.75;;;15.70;99.90;;;;;;5012947;28;20049;-93
2022/10/08 06:33:11;;;;;;;9.55;4.72;;;;;;;;;;5013996;28;20049;-93
2022/10/08 06:35:38;;;;;;;13.13;5.28;;;;;;;;;;5014042;28;20026;-92
2022/10/08 06:38:04;;;;;;;11.68;5.95;;;15.80;99.90;;;;;;5013905;28;20034;-93
2022/10/08 06:40:37;;;;;;;15.05;6.07;;;15.50;99.90;;;;;;5013733;28;20033;-93
2022/10/08 06:43:15;;;;;;;12.82;5.50;;;15.70;99.90;;;;;;5013549;28;20415;-95
2022/10/08 06:45:41;;;;;;;13.27;5.43;;;15.50;99.90;;;;;;4995812;28;20022;-92
2022/10/08 06:48:08;;;;;;;13.75;5.15;;;;;;;;;;4995531;28;20048;-94
2022/10/08 06:50:34;;;;;;;11.00;4.72;;;15.80;99.90;;;;;;5013510;28;20064;-94
2022/10/08 06:53:00;;;;;;;13.60;5.63;;;;;;;;;;4996054;28;20076;-93
2022/10/08 06:55:26;;;;;;;8.38;4.22;;;;;;;;;;5012374;28;20022;-94
2022/10/08 06:57:52;;;;;;;8.60;5.10;;;;;;;;;;5013457;28;20026;-93
2022/10/08 07:00:19;;;;;;;11.20;5.63;;;15.70;99.90;;;;;;5006019;28;20034;-92
2022/10/08 07:02:45;;;;;;;17.10;5.65;;;;;;;;;;5013379;28;20403;-93
2022/10/08 07:05:11;;;;;;;13.52;5.57;;;;;;;;;;5013549;28;20018;-93
2022/10/08 07:07:37;;;;;;;10.60;5.47;;;;;;;;;;5012476;28;20037;-94
2022/10/08 07:10:03;;;;;;;15.93;5.93;;;;;;;;;;5012412;28;20021;-93
2022/10/08 07:12:30;;;;;;;12.30;5.25;;;;;;;;;;5012291;28;20030;-94
2022/10/08 07:14:56;;;;;;;10.20;4.15;;;;;;;;;;5011477;28;20038;-93
2022/10/08 07:17:24;;;;;;;10.63;4.55;;;16.00;99.90;;;;;;5012043;28;20508;-93
2022/10/08 07:19:51;;;;;;;9.70;4.13;;;;;;;;;;5012941;28;20030;-93
2022/10/08 07:22:17;;;;;;;8.82;5.20;;;;;;;;;;5011832;28;20030;-93
2022/10/08 07:24:42;;;;;;;10.32;4.60;;;16.00;99.90;;;;;;5012872;28;20037;-93
2022/10/08 07:27:08;;;;;;;11.32;5.15;;;;;;;;;;4995722;28;20025;-95
2022/10/08 07:29:35;;;;;;;10.90;5.15;;;;;;;;;;5013331;28;20034;-95
2022/10/08 07:32:01;;;;;;;11.57;5.80;;;;;;;;;;5012415;28;20088;-95
2022/10/08 07:34:28;;;;;;;13.35;5.53;;;;;;;;;;5012158;28;20041;-94
2022/10/08 07:36:54;;;;;;;10.73;4.68;;;16.50;99.90;;;;;;5013046;28;20034;-93
2022/10/08 07:39:20;;;;;;;11.20;4.43;;;;;;;;;;5011449;28;20061;-94
2022/10/08 07:41:46;;;;;;;14.98;5.35;;;;;;;;;;5011728;28;20014;-92
2022/10/08 07:44:13;;;;;;;14.65;5.85;;;;;;;;;;5003375;28;20624;-93
2022/10/08 07:46:43;;;;;;;10.77;5.20;;;16.40;99.90;;;;;;5011804;28;20026;-93
2022/10/08 07:49:09;;;;;;;12.68;4.55;;;;;;;;;;4995118;28;20121;-93
2022/10/08 07:51:35;;;;;;;8.15;4.45;;;;;;;;;;5012875;28;20025;-93
2022/10/08 07:54:03;;;;;;;11.68;4.85;;;16.10;99.90;;;;;;5011605;28;20037;-93
2022/10/08 07:56:29;;;;;;;;;;;16.10;99.90;;;;;;4995535;28;20157;-93
2022/10/08 07:58:55;;;;;;;13.07;5.50;;;;;;;;;;4994912;28;19909;-93
2022/10/08 08:01:25;;;;;;;10.90;5.10;;;17.70;99.90;;;;;;5012454;28;20021;-93
2022/10/08 08:03:54;;;;;;;19.38;5.55;;;16.10;99.90;;;;;;5011193;28;20084;-94
2022/10/08 08:06:20;;;;;;;12.82;5.30;;;;;;;;;;4994977;28;20430;-93
2022/10/08 08:08:46;;;;;;;12.95;6.50;;;;;;;;;;5012029;28;20022;-94
2022/10/08 08:11:14;;;;;;;14.25;5.00;;;16.00;99.90;;;;;;5012628;28;20041;-93
2022/10/08 08:13:41;;;;;;;8.10;4.78;;;16.00;99.90;;;;;;4994886;28;20041;-92
2022/10/08 08:16:13;;;;;;;9.50;5.90;;;15.80;99.90;;;;;;5012480;28;20357;-93
2022/10/08 08:18:41;;;;;;;7.57;4.90;;;16.00;99.90;;;;;;5016308;28;20057;-93
2022/10/08 08:21:11;;;;;;;6.78;4.70;;;16.00;99.90;;;;;;4982782;28;20415;-93
2022/10/08 08:23:39;;;;;;;13.20;5.05;;;16.10;99.90;;;;;;4989309;28;20495;-92
2022/10/08 08:26:10;;;;;;;8.00;5.47;;;16.20;99.90;;;;;;5012682;28;20026;-93
2022/10/08 08:28:36;;;;;;;11.55;5.57;;;;;;;;;;5012659;28;20037;-92
2022/10/08 08:31:14;;;;;;;9.98;4.95;;;16.20;99.90;;;;;;5011128;28;20036;-92
2022/10/08 08:33:40;;;;;;;;;;;16.30;99.90;;;;;;5012459;28;20026;-92
2022/10/08 08:36:06;;;;;;;6.60;4.43;;;16.30;99.90;;;;;;5012208;28;19905;-93
2022/10/08 08:38:36;;;;;;;7.78;4.30;;;16.50;99.90;;;;;;4994739;28;20041;-92
2022/10/08 08:41:37;;;;;;;5.50;3.67;;;16.50;99.90;;;;;;4995069;28;20109;-93
2022/10/08 08:44:10;;;;;;;6.07;3.55;;;16.50;99.90;;;;;;4973997;28;20043;-92
2022/10/08 08:46:39;;;;;;;10.13;4.30;;;16.50;99.90;;;;;;4974203;28;20034;-94
2022/10/08 08:49:18;;;;;;;4.57;3.60;;;16.40;99.90;;;;;;4974017;28;20133;-93
2022/10/08 08:51:44;;;;;;;11.25;4.38;;;;;;;;;;4990714;28;20030;-95
2022/10/08 08:54:10;;;;;;;3.78;3.42;;;;;;;;;;4987466;28;20439;-93
2022/10/08 08:56:36;;;;;;;5.93;3.83;;;;;;;;;;4990983;28;20026;-91
2022/10/08 08:59:17;;;;;;;8.88;4.22;;;16.30;99.90;;;;;;4990079;28;20023;-93
2022/10/08 09:01:45;;;;;;;8.73;4.25;;;16.30;99.90;;;;;;4990378;28;20105;-92
2022/10/08 09:04:43;;;;;;;5.55;3.40;;;16.40;99.90;;;;;;4973749;28;20093;-93
2022/10/08 09:07:15;;;;;;;8.35;3.33;;;16.30;99.90;;;;;;4973870;28;20030;-93
2022/10/08 09:09:41;;;;;;;4.10;2.75;;;;;;;;;;4988323;28;20022;-93
2022/10/08 09:12:35;;;;;;;7.57;3.42;;;16.40;99.90;;;;;;4993183;28;20033;-94
2022/10/08 09:15:01;;;;;;;11.88;3.60;;;15.80;99.90;;;;;;4988654;28;20034;-93
2022/10/08 09:17:32;;;;;;;6.30;3.90;;;16.40;99.90;;;;;;4993566;28;20074;-92
2022/10/08 09:19:59;;;;;;;15.77;3.38;;;;;;;;;;4996853;28;20038;-90
2022/10/08 09:22:28;;;;;;;9.23;3.88;;;16.40;99.90;;;;;;5015518;28;20049;-93
2022/10/08 09:25:02;;;;;;;7.95;3.30;;;16.40;99.90;;;;;;5014945;28;20026;-92
2022/10/08 09:27:54;;;;;;;8.77;3.85;;;16.40;99.90;;;;;;4999369;28;20084;-93
2022/10/08 09:30:23;;;;;;;6.03;3.47;;;16.60;99.90;;;;;;5015418;28;20034;-92
2022/10/08 09:32:50;;;;;;;9.32;3.45;;;16.50;99.90;;;;;;5012004;28;20042;-93
2022/10/08 09:35:16;;;;;;;8.13;3.40;;;;;;;;;;5014880;28;20033;-92
2022/10/08 09:37:45;;;;;;;10.65;3.60;;;16.60;99.90;;;;;;5013712;28;20651;-92
2022/10/08 09:40:11;;;;;;;7.20;4.07;;;;;;;;;;4999255;28;20451;-93
2022/10/08 09:42:37;;;;;;;11.02;3.70;;;16.60;99.90;;;;;;5011465;28;20068;-94
2022/10/08 09:45:29;;;;;;;8.23;3.75;;;16.70;99.90;;;;;;5004784;28;20033;-94
2022/10/08 09:48:18;;;;;;;14.98;3.72;;;16.90;99.90;;;;;;5014152;28;20554;-92
2022/10/08 09:50:54;;;;;;;3.67;2.58;;;16.60;99.90;;;;;;5014589;28;20017;-93
2022/10/08 09:53:22;;;;;;;5.00;3.17;;;16.50;99.90;;;;;;4997397;28;20034;-92
2022/10/08 09:55:56;;;;;;;4.40;2.33;;;16.30;99.90;;;;;;5014562;28;20430;-93
2022/10/08 09:58:22;;;;;;;5.75;2.97;;;;;;;;;;4985173;28;20233;-93
2022/10/08 10:01:24;;;;;;;6.88;3.47;;;16.50;99.90;;;;;;5013558;28;20022;-93
2022/10/08 10:04:02;;;;;;;13.77;3.85;;;16.50;99.90;;;;;;5001491;28;20063;-93
2022/10/08 10:06:41;;;;;;;7.75;3.25;;;16.40;99.90;;;;;;4997201;28;20026;-90
2022/10/08 10:09:09;;;;;;;4.43;3.28;;;16.30;99.90;;;;;;5007982;28;20026;-92
2022/10/08 10:11:47;;;;;;;5.90;2.60;;;16.40;99.90;;;;;;5012804;28;20033;-92
2022/10/08 10:14:29;;;;;;;9.60;3.03;;;16.30;99.90;;;;;;4996668;28;20125;-92
2022/10/08 10:17:11;;;;;;;6.50;3.58;;;16.30;99.90;;;;;;4996553;28;20026;-92
2022/10/08 10:19:44;;;;;;;6.55;2.80;;;16.30;99.90;;;;;;4997781;28;20490;-92
2022/10/08 10:22:14;;;;;;;4.13;2.65;;;16.30;99.90;;;;;;5000636;28;20030;-92
2022/10/08 10:25:03;;;;;;;4.70;2.30;;;16.30;99.90;;;;;;4999013;28;20027;-91
2022/10/08 10:27:41;;;;;;;3.30;2.50;;;16.60;99.90;;;;;;5009133;28;20026;-92
2022/10/08 10:30:20;;;;;;;3.30;2.15;;;16.30;99.90;;;;;;5028923;28;20029;-92
2022/10/08 10:32:50;;;;;;;3.42;2.25;;;16.30;99.90;;;;;;5013789;28;20389;-93
2022/10/08 10:35:30;;;;;;;10.15;2.40;;;16.40;99.90;;;;;;5012894;28;20040;-92
2022/10/08 10:38:27;;;;;;;4.28;2.45;;;16.50;99.90;;;;;;5002467;28;20109;-93
2022/10/08 10:41:17;;;;;;;3.35;1.92;;;16.90;99.90;;;;;;5000284;28;20555;-92
2022/10/08 10:44:01;;;;;;;3.25;1.80;;;16.50;99.90;;;;;;5012574;28;20076;-92
2022/10/08 10:46:38;;;;;;;3.85;1.95;;;16.50;99.90;;;;;;4995834;28;20030;-92
2022/10/08 10:49:14;;;;;;;5.80;2.20;;;16.50;99.90;;;;;;4993187;28;20026;-92
2022/10/08 10:52:01;;;;;;;2.85;1.90;;;16.60;99.90;;;;;;4996559;28;20029;-92
2022/10/08 10:54:43;;;;;;;7.57;2.05;;;16.60;99.90;;;;;;5008475;28;20120;-94
2022/10/08 10:57:25;;;;;;;4.82;1.95;;;16.80;99.90;;;;;;5012153;28;20058;-92
2022/10/08 11:00:08;;;;;;;6.70;2.17;;;16.90;99.90;;;;;;4994414;28;20022;-93
2022/10/08 11:02:45;;;;;;;3.83;1.92;;;17.20;99.90;;;;;;5012985;28;20050;-93
2022/10/08 11:05:14;;;;;;;4.40;1.73;;;16.80;99.90;;;;;;5008344;28;20088;-92
2022/10/08 11:07:47;;;;;;;3.35;2.00;;;17.00;99.90;;;;;;5006883;28;20022;-93
2022/10/08 11:10:22;;;;;;;5.15;2.15;;;16.70;99.90;;;;;;5012899;28;20117;-93
2022/10/08 11:13:12;;;;;;;2.58;1.30;;;16.80;99.90;;;;;;5002374;28;20506;-92
2022/10/08 11:16:29;;;;;;;2.15;1.70;;;16.60;99.90;;;;;;4983222;28;20030;-92
2022/10/08 11:18:58;;;;;;;6.05;2.10;;;16.90;99.90;;;;;;4941584;29;20090;-93
2022/10/08 11:21:24;;;;;;;4.47;2.05;;;;;;;;;;4951735;29;20580;-94
2022/10/08 11:23:55;;;;;;;6.38;2.28;;;16.90;99.90;;;;;;4941712;28;20118;-94
2022/10/08 11:26:42;;;;;;;2.80;2.33;;;16.80;99.90;;;;;;4936595;28;20027;-92
2022/10/08 11:29:16;;;;;;;4.07;2.63;;;16.90;99.90;;;;;;4952574;29;20739;-92
2022/10/08 11:31:47;;;;;;;5.50;1.83;;;16.80;99.90;;;;;;4936981;29;20023;-92
2022/10/08 11:34:31;;;;;;;5.15;2.38;;;17.10;99.90;;;;;;4936362;29;20090;-93
2022/10/08 11:36:57;;;;;;;3.47;2.75;;;;;;;;;;4952651;29;20051;-93
2022/10/08 11:39:32;;;;;;;5.50;2.15;;;17.50;99.90;;;;;;4946198;29;20027;-93
2022/10/08 11:42:26;;;;;;;5.03;2.10;;;18.00;99.90;;;;;;4952735;29;20063;-94
2022/10/08 11:44:52;;;;;;;3.55;2.45;;;;;;;;;;4943078;29;20038;-92
2022/10/08 11:47:41;;;;;;;4.45;2.67;;;17.90;99.90;;;;;;4952337;29;20019;-92
2022/10/08 11:50:34;;;;;;;4.47;2.35;;;17.90;99.90;;;;;;4993493;28;20069;-93
2022/10/08 11:53:08;;;;;;;7.30;3.60;;;17.80;99.90;;;;;;4984144;28;20044;-93
2022/10/08 11:55:35;;;;;;;6.20;2.25;;;18.00;99.90;;;;;;4996130;28;20032;-93
2022/10/08 11:58:04;;;;;;;8.48;2.00;;;18.00;99.90;;;;;;5012645;28;20034;-92
2022/10/08 12:00:37;;;;;;;3.25;2.75;;;18.00;99.90;;;;;;5012562;28;20030;-93
2022/10/08 12:03:15;;;;;;;4.50;2.30;;;18.10;99.90;;;;;;4994944;28;20108;-92
2022/10/08 12:05:44;;;;;;;5.85;2.70;;;18.00;99.90;;;;;;5012201;28;20068;-93
2022/10/08 12:08:10;;;;;;;3.25;2.58;;;;;;;;;;5012405;28;20037;-94
2022/10/08 12:10:39;;;;;;;4.25;2.80;;;18.10;99.90;;;;;;5012502;28;20033;-92
2022/10/08 12:13:05;;;;;;;5.90;2.10;;;;;;;;;;5012372;28;20090;-94
2022/10/08 12:15:32;;;;;;;3.95;2.40;;;;;;;;;;5011087;28;20018;-93
2022/10/08 12:18:22;;;;;;;3.88;2.20;;;18.50;99.90;;;;;;5012481;28;20040;-93
2022/10/08 12:21:20;;;;;;;6.60;2.33;;;18.80;99.90;;;;;;5002768;28;20639;-93
2022/10/08 12:23:46;;;;;;;6.93;2.28;;;;;;;;;;4952153;29;20047;-93
2022/10/08 12:26:14;;;;;;;3.40;2.53;;;18.80;99.90;;;;;;4951679;28;20039;-93
2022/10/08 12:28:48;;;;;;;6.45;2.47;;;18.60;99.90;;;;;;4936370;29;20067;-93
2022/10/08 12:31:14;;;;;;;4.05;3.25;;;;;;;;;;4951821;28;20130;-91
2022/10/08 12:33:41;;;;;;;9.02;3.03;;;;;;;;;;4951887;29;20047;-93
2022/10/08 12:36:07;;;;;;;3.33;2.42;;;;;;;;;;4951779;29;20050;-92
2022/10/08 12:38:50;;;;;;;3.40;2.20;;;17.90;99.90;;;;;;4952001;29;20071;-93
2022/10/08 12:41:45;;;;;;;5.72;2.58;;;17.90;99.90;;;;;;4951490;29;20070;-92
2022/10/08 12:44:43;;;;;;;8.18;2.42;;;17.50;99.90;;;;;;4951663;28;20038;-93
2022/10/08 12:47:38;;;;;;;5.55;2.42;;;17.60;99.90;;;;;;4917194;29;20048;-94
2022/10/08 12:50:14;;;;;;;6.30;2.65;;;17.60;99.90;;;;;;4901229;29;20056;-92
2022/10/08 12:52:40;;;;;;;5.80;2.72;;;;;;;;;;4916321;29;20044;-94
2022/10/08 12:55:17;;;;;;;4.28;2.38;;;17.50;99.90;;;;;;4901321;29;20075;-94
2022/10/08 12:57:43;;;;;;;2.83;2.25;;;;;;;;;;4901252;29;20040;-93
2022/10/08 13:00:23;;;;;;;2.40;2.08;;;17.30;99.90;;;;;;4948112;29;20067;-93
2022/10/08 13:03:06;;;;;;;9.65;2.35;;;18.00;99.90;;;;;;4940827;29;20118;-93
2022/10/08 13:05:37;;;;;;;2.30;2.10;;;17.70;99.90;;;;;;4937381;29;20539;-92
2022/10/08 13:08:28;;;;;;;3.20;2.30;;;17.60;99.90;;;;;;4954833;29;20400;-93
2022/10/08 13:11:00;;;;;;;6.00;2.83;;;17.60;99.90;;;;;;4944311;28;20182;-94
2022/10/08 13:13:37;;;;;;;4.50;2.72;;;17.70;99.90;;;;;;4954975;29;20055;-93
2022/10/08 13:16:17;;;;;;;5.50;2.67;;;17.50;99.90;;;;;;4954828;29;20035;-94
2022/10/08 13:18:49;;;;;;;8.10;2.38;;;17.50;99.90;;;;;;4955005;29;20056;-92
2022/10/08 13:21:25;;;;;;;6.35;2.25;;;17.50;99.90;;;;;;4954993;29;20031;-92
2022/10/08 13:23:51;;;;;;;2.55;2.13;;;17.80;99.90;;;;;;4988827;28;20169;-93
2022/10/08 13:26:40;;;;;;;3.25;2.55;;;18.30;99.90;;;;;;5014726;28;20253;-93
2022/10/08 13:29:21;;;;;;;6.00;3.13;;;;;;;;;;5015211;28;20487;-93
2022/10/08 13:31:56;;;;;;;2.17;1.98;;;18.40;99.90;;;;;;5015539;28;20026;-93
2022/10/08 13:34:26;;;;;;;3.55;2.50;;;18.10;99.90;;;;;;5014587;28;20053;-94
2022/10/08 13:36:58;;;;;;;4.70;2.20;;;18.10;99.90;;;;;;4997412;28;20034;-94
2022/10/08 13:39:27;;;;;;;8.70;2.17;;;17.90;99.90;;;;;;5014915;28;20112;-94
2022/10/08 13:41:58;;;;;;;6.15;2.67;;;17.70;99.90;;;;;;4997544;28;20037;-93
2022/10/08 13:44:25;;;;;;;13.88;2.95;;;17.50;99.90;;;;;;5014596;28;20025;-93
2022/10/08 13:46:52;;;;;;;5.53;2.25;;;;;;;;;;5015151;28;20113;-94